Time;durP1;ratioP1;P1;durP2;ratioP2;P2;SDS_P1;SDS_P2;PMS_P1;PMS_P2;Temp;Humidity;BMP_temperature;BMP_pressure;BME280_temperature;BME280_humidity;BME280_pressure;Samples;Min_cycle;Max_cycle;Signal;HPM_P1;HPM_P2
2022/01/27 00:06:23;;;;;;;75.85;30.17;;;;;;;2.39;100.00;101497.75;5002520;28;20480;-62
2022/01/27 00:08:59;;;;;;;64.57;27.55;;;;;;;2.34;100.00;101495.16;4999826;28;20144;-63
2022/01/27 00:11:26;;;;;;;68.15;27.20;;;;;;;2.38;100.00;101503.78;5008278;28;20053;-63
2022/01/27 00:14:00;;;;;;;69.53;27.85;;;;;;;2.36;100.00;101493.41;5003529;28;20057;-63
2022/01/27 00:16:34;;;;;;;61.03;25.48;;;;;;;2.37;100.00;101489.94;5006050;28;20052;-64
2022/01/27 00:19:01;;;;;;;68.68;26.10;;;;;;;2.32;100.00;101489.13;5003438;28;20061;-62
2022/01/27 00:21:30;;;;;;;66.07;28.38;;;;;;;2.32;100.00;101488.28;4999791;28;20053;-64
2022/01/27 00:23:58;;;;;;;58.42;26.73;;;;;;;2.35;100.00;101475.25;4987444;28;20061;-62
2022/01/27 00:26:25;;;;;;;62.53;25.63;;;;;;;2.37;100.00;101471.75;5004800;28;20145;-60
2022/01/27 00:28:53;;;;;;;60.67;25.92;;;;;;;2.35;100.00;101465.72;5003850;28;20062;-63
2022/01/27 00:31:22;;;;;;;58.30;27.38;;;;;;;2.32;100.00;101459.69;5001812;28;20053;-66
2022/01/27 00:33:50;;;;;;;59.25;24.90;;;;;;;2.35;100.00;101459.66;5005316;28;20042;-61
2022/01/27 00:36:17;;;;;;;64.53;27.63;;;;;;;2.32;100.00;101460.56;5003576;28;20060;-63
2022/01/27 00:38:45;;;;;;;58.83;25.75;;;;;;;2.36;100.00;101445.78;5006995;28;20430;-62
2022/01/27 00:41:13;;;;;;;54.15;23.10;;;;;;;2.41;100.00;101452.66;5002884;28;20112;-64
2022/01/27 00:43:43;;;;;;;63.15;26.27;;;;;;;2.39;100.00;101446.63;5001644;28;20234;-62
2022/01/27 00:46:15;;;;;;;54.63;23.70;;;;;;;2.37;100.00;101432.78;5006805;28;20311;-64
2022/01/27 00:48:44;;;;;;;54.47;22.85;;;;;;;2.40;100.00;101421.50;5003462;28;20061;-64
2022/01/27 00:51:14;;;;;;;47.47;22.55;;;;;;;2.35;100.00;101425.88;4999858;28;20478;-63
2022/01/27 00:53:49;;;;;;;55.67;23.35;;;;;;;2.39;100.00;101418.03;4990804;28;20057;-63
2022/01/27 00:59:25;;;;;;;51.10;22.98;;;;;;;2.43;100.00;101411.03;4977241;28;20060;-63
2022/01/27 01:02:04;;;;;;;41.78;18.38;;;;;;;2.41;100.00;101424.06;5007758;28;20060;-65
2022/01/27 01:04:35;;;;;;;46.95;21.52;;;;;;;2.49;100.00;101406.63;5002840;28;21780;-64
2022/01/27 01:07:03;;;;;;;48.95;23.45;;;;;;;2.43;100.00;101398.94;5001613;28;20743;-63
2022/01/27 01:15:19;;;;;;;53.28;22.40;;;;;;;2.42;100.00;101389.41;4999795;28;20083;-63
2022/01/27 01:20:51;;;;;;;59.90;24.92;;;;;;;2.46;100.00;101378.09;5016461;28;20049;-63
2022/01/27 01:32:12;;;;;;;46.40;21.73;;;;;;;2.48;100.00;101398.88;5001504;28;20053;-64
2022/01/27 01:34:45;;;;;;;46.85;20.30;;;;;;;2.53;100.00;101381.47;5001393;28;20065;-63
2022/01/27 01:37:17;;;;;;;42.35;20.20;;;;;;;2.57;100.00;101388.34;5005927;28;20069;-62
2022/01/27 01:39:44;;;;;;;41.85;20.55;;;;;;;2.50;100.00;101377.16;5003858;28;20054;-63
2022/01/27 01:42:12;;;;;;;42.78;19.88;;;;;;;2.52;100.00;101370.22;5000538;28;20081;-63
2022/01/27 01:44:39;;;;;;;42.38;19.65;;;;;;;2.56;100.00;101362.34;4998998;28;20053;-63
2022/01/27 01:47:06;;;;;;;37.55;18.77;;;;;;;2.63;100.00;101369.19;5004914;28;20050;-64
2022/01/27 01:49:34;;;;;;;44.42;18.60;;;;;;;2.60;100.00;101367.50;5004332;28;20052;-64
2022/01/27 01:52:06;;;;;;;40.88;19.13;;;;;;;2.60;100.00;101356.25;4999770;28;20064;-63
2022/01/27 01:54:34;;;;;;;43.50;19.15;;;;;;;2.61;100.00;101353.63;5004441;28;20132;-63
2022/01/27 01:57:01;;;;;;;41.42;18.98;;;;;;;2.57;100.00;101354.56;5002089;28;20053;-63
2022/01/27 01:59:28;;;;;;;44.22;18.73;;;;;;;2.64;100.00;101339.72;5001984;28;20090;-63
2022/01/27 02:01:56;;;;;;;39.58;18.55;;;;;;;2.60;100.00;101330.25;4997990;28;20061;-63
2022/01/27 02:04:23;;;;;;;40.75;19.25;;;;;;;2.56;100.00;101324.22;5005629;28;20528;-63
2022/01/27 02:06:55;;;;;;;36.80;18.02;;;;;;;2.57;100.00;101344.16;5005898;28;20058;-62
2022/01/27 02:09:32;;;;;;;35.47;17.80;;;;;;;2.59;100.00;101297.34;5008598;28;20470;-63
2022/01/27 02:17:59;;;;;;;38.40;17.20;;;;;;;2.64;100.00;101291.19;5010180;28;20108;-63
2022/01/27 02:20:27;;;;;;;35.05;17.33;;;;;;;2.62;100.00;101284.31;5002342;28;20053;-63
2022/01/27 02:22:55;;;;;;;31.38;16.63;;;;;;;2.67;100.00;101278.16;5006684;28;20061;-63
2022/01/27 02:25:22;;;;;;;31.05;16.77;;;;;;;2.66;100.00;101273.00;5010646;28;20069;-62
2022/01/27 02:27:54;;;;;;;31.30;16.83;;;;;;;2.66;100.00;101265.19;5002630;28;20061;-63
2022/01/27 02:30:24;;;;;;;35.85;17.70;;;;;;;2.67;100.00;101259.09;5004351;28;20053;-63
2022/01/27 02:32:52;;;;;;;31.25;15.70;;;;;;;2.67;100.00;101253.91;5005046;28;20073;-63
2022/01/27 02:35:24;;;;;;;31.27;17.85;;;;;;;2.64;100.00;101254.78;5002819;28;20112;-63
2022/01/27 02:37:52;;;;;;;34.78;15.90;;;;;;;2.66;100.00;101263.44;5000157;28;20053;-63
2022/01/27 02:40:39;;;;;;;26.50;15.15;;;;;;;2.63;100.00;101250.47;5003544;28;20405;-62
2022/01/27 02:43:06;;;;;;;32.67;16.10;;;;;;;2.67;100.00;101249.56;4989980;28;20064;-63
2022/01/27 02:45:46;;;;;;;28.77;16.17;;;;;;;2.66;100.00;101247.84;5004822;28;20046;-64
2022/01/27 02:48:13;;;;;;;30.77;17.10;;;;;;;2.70;100.00;101240.81;4994908;28;20164;-63
2022/01/27 02:50:40;;;;;;;34.88;17.17;;;;;;;2.72;100.00;101244.28;5007671;28;20125;-63
2022/01/27 02:53:07;;;;;;;31.90;16.65;;;;;;;2.72;100.00;101237.34;5007550;28;20048;-64
2022/01/27 02:55:35;;;;;;;32.40;16.35;;;;;;;2.82;100.00;101257.97;5006417;28;20060;-62
2022/01/27 02:58:04;;;;;;;31.35;17.00;;;;;;;2.76;100.00;101239.00;5006890;28;20050;-62
2022/01/27 03:00:35;;;;;;;31.10;16.15;;;;;;;2.76;100.00;101245.94;5017321;28;20514;-63
2022/01/27 03:03:02;;;;;;;24.95;15.05;;;;;;;2.80;100.00;101237.22;5004799;28;20057;-64
2022/01/27 03:05:30;;;;;;;32.42;17.50;;;;;;;2.72;100.00;101221.72;5003930;28;20050;-64
2022/01/27 03:07:57;;;;;;;29.58;16.65;;;;;;;2.76;100.00;101206.94;5008030;28;20053;-61
2022/01/27 03:10:28;;;;;;;31.02;16.35;;;;;;;2.76;100.00;101202.59;5004476;28;20071;-64
2022/01/27 03:12:59;;;;;;;31.98;16.80;;;;;;;2.85;100.00;101209.38;5005150;28;20058;-61
2022/01/27 03:15:27;;;;;;;27.50;15.52;;;;;;;2.85;100.00;101203.34;4983414;28;20458;-64
2022/01/27 03:17:55;;;;;;;31.05;16.38;;;;;;;2.78;100.00;101187.81;5011350;28;20059;-64
2022/01/27 03:20:31;;;;;;;29.90;15.27;;;;;;;2.79;100.00;101181.75;5003207;28;20141;-64
2022/01/27 03:23:02;;;;;;;31.55;16.40;;;;;;;2.77;100.00;101193.06;5009087;28;20073;-63
2022/01/27 03:25:29;;;;;;;28.83;15.55;;;;;;;2.74;100.00;101174.91;5006638;28;20072;-63
2022/01/27 03:27:56;;;;;;;31.15;17.30;;;;;;;2.73;100.00;101174.03;5008278;28;20061;-63
2022/01/27 03:30:24;;;;;;;28.40;15.93;;;;;;;2.84;100.00;101179.06;5004765;28;20065;-63
2022/01/27 03:32:52;;;;;;;27.35;15.70;;;;;;;2.84;100.00;101162.59;5002184;28;20054;-63
2022/01/27 03:35:19;;;;;;;25.60;14.90;;;;;;;2.85;100.00;101162.59;5005530;28;20406;-63
2022/01/27 03:37:46;;;;;;;23.67;14.45;;;;;;;2.84;100.00;101163.47;5007857;28;20053;-63
2022/01/27 03:40:13;;;;;;;27.73;15.75;;;;;;;2.81;100.00;101144.47;5004455;28;20466;-63
2022/01/27 03:42:50;;;;;;;29.92;15.15;;;;;;;2.82;100.00;101161.78;5005199;28;20457;-64
2022/01/27 03:45:17;;;;;;;29.27;14.98;;;;;;;2.81;100.00;101136.66;5001358;28;20135;-63
2022/01/27 03:47:44;;;;;;;27.92;16.05;;;;;;;2.78;100.00;101147.97;5004500;28;20134;-63
2022/01/27 03:50:11;;;;;;;27.60;16.55;;;;;;;2.83;100.00;101143.53;5004531;28;20054;-62
2022/01/27 03:52:38;;;;;;;27.02;15.57;;;;;;;2.85;100.00;101130.53;5003253;28;20058;-63
2022/01/27 03:55:06;;;;;;;27.38;15.98;;;;;;;2.87;100.00;101128.75;5002781;28;20053;-63
2022/01/27 03:57:33;;;;;;;29.65;15.85;;;;;;;2.83;100.00;101119.28;5001637;28;20042;-62
2022/01/27 04:00:00;;;;;;;31.48;16.05;;;;;;;2.82;100.00;101127.97;5003136;28;20058;-63
2022/01/27 04:02:28;;;;;;;31.75;16.05;;;;;;;2.86;100.00;101127.03;5004223;28;20410;-63
2022/01/27 04:04:55;;;;;;;30.90;15.10;;;;;;;2.89;100.00;101135.63;5003409;28;20046;-63
2022/01/27 04:07:22;;;;;;;28.17;15.25;;;;;;;2.91;100.00;101143.41;5006912;28;20124;-64
2022/01/27 04:09:49;;;;;;;26.35;14.80;;;;;;;2.88;100.00;101128.72;5005119;28;20053;-63
2022/01/27 04:12:17;;;;;;;23.17;14.65;;;;;;;2.93;100.00;101134.69;5005800;28;20654;-62
2022/01/27 04:14:44;;;;;;;24.45;14.45;;;;;;;2.94;100.00;101123.41;5006101;28;20669;-63
2022/01/27 04:17:11;;;;;;;28.00;15.20;;;;;;;2.94;100.00;101113.00;5007058;28;20050;-61
2022/01/27 04:19:38;;;;;;;27.17;15.77;;;;;;;2.93;100.00;101137.28;5006062;28;20506;-63
2022/01/27 04:22:05;;;;;;;30.13;14.90;;;;;;;2.89;100.00;101117.44;5004836;28;20068;-61
2022/01/27 04:24:32;;;;;;;30.17;15.00;;;;;;;2.95;100.00;101119.91;5006613;28;20184;-61
2022/01/27 04:27:07;;;;;;;28.20;15.63;;;;;;;2.95;100.00;101112.09;5005360;28;20054;-62
2022/01/27 04:29:37;;;;;;;26.33;15.18;;;;;;;2.97;100.00;101107.75;5002105;28;20249;-62
2022/01/27 04:32:08;;;;;;;22.15;13.85;;;;;;;2.97;100.00;101123.34;5005375;28;20469;-62
2022/01/27 04:34:38;;;;;;;26.58;14.70;;;;;;;3.02;100.00;101105.91;4999604;28;20137;-63
2022/01/27 04:37:07;;;;;;;24.58;14.57;;;;;;;3.01;100.00;101106.75;4988301;28;20046;-62
2022/01/27 04:39:42;;;;;;;27.05;13.93;;;;;;;3.04;100.00;101090.25;5004691;28;20553;-63
2022/01/27 04:42:25;;;;;;;21.73;12.23;;;;;;;3.10;100.00;101092.72;5002848;28;20056;-63
2022/01/27 04:45:15;;;;;;;21.00;12.10;;;;;;;3.13;100.00;101095.25;5003325;28;20138;-62
2022/01/27 04:47:46;;;;;;;19.90;11.93;;;;;;;3.16;100.00;101090.00;4988965;28;20113;-63
2022/01/27 04:50:14;;;;;;;19.52;11.93;;;;;;;3.19;100.00;101094.28;4996936;28;20104;-64
2022/01/27 04:52:45;;;;;;;18.88;12.27;;;;;;;3.18;100.00;101088.22;5001543;28;20065;-63
2022/01/27 04:55:14;;;;;;;22.05;11.02;;;;;;;3.18;100.00;101084.75;5004452;28;20050;-62
2022/01/27 04:57:44;;;;;;;19.67;12.48;;;;;;;3.24;100.00;101082.91;5003541;28;20050;-63
2022/01/27 05:00:15;;;;;;;21.60;11.88;;;;;;;3.24;100.00;101069.91;5002063;28;20050;-63
2022/01/27 05:02:47;;;;;;;20.17;10.45;;;;;;;3.27;100.00;101079.38;4999527;28;20064;-64
2022/01/27 05:05:20;;;;;;;17.02;9.85;;;;;;;3.24;100.00;101058.59;5004405;28;20054;-63
2022/01/27 05:07:56;;;;;;;17.13;10.70;;;;;;;3.22;100.00;101045.63;5004261;28;20133;-63
2022/01/27 05:10:27;;;;;;;15.88;10.30;;;;;;;3.22;100.00;101039.59;5003013;28;20046;-63
2022/01/27 05:13:11;;;;;;;15.07;9.95;;;;;;;3.25;100.00;101052.53;5006987;28;20052;-62
2022/01/27 05:15:44;;;;;;;15.15;10.00;;;;;;;3.25;100.00;101037.78;5002243;28;20247;-63
2022/01/27 05:18:12;;;;;;;17.38;10.15;;;;;;;3.24;100.00;101025.66;4993929;28;20050;-63
2022/01/27 05:20:39;;;;;;;20.08;9.50;;;;;;;3.22;100.00;101027.44;5004710;28;20058;-63
2022/01/27 05:23:07;;;;;;;16.67;10.18;;;;;;;3.20;100.00;101041.38;5007979;28;20156;-63
2022/01/27 05:25:34;;;;;;;14.77;8.95;;;;;;;3.23;100.00;101023.06;4999212;28;20514;-63
2022/01/27 05:28:01;;;;;;;12.30;8.77;;;;;;;3.19;100.00;101021.44;5004991;28;20149;-61
2022/01/27 05:30:28;;;;;;;15.13;9.82;;;;;;;3.21;100.00;100999.72;5001376;28;20401;-64
2022/01/27 05:32:55;;;;;;;12.25;9.55;;;;;;;3.17;100.00;101000.66;5002435;28;20601;-63
2022/01/27 05:35:23;;;;;;;14.80;8.93;;;;;;;3.20;100.00;100984.13;5002990;28;20145;-63
2022/01/27 05:37:50;;;;;;;15.35;9.30;;;;;;;3.18;100.00;100984.16;5004041;28;20061;-63
2022/01/27 05:40:17;;;;;;;11.68;8.38;;;;;;;3.13;100.00;100990.34;5007375;28;20046;-63
2022/01/27 05:42:44;;;;;;;14.35;9.18;;;;;;;3.13;100.00;100977.34;5006482;28;20050;-63
2022/01/27 05:45:12;;;;;;;13.35;9.50;;;;;;;3.12;100.00;100980.84;5003537;28;20058;-63
2022/01/27 05:47:39;;;;;;;17.02;10.43;;;;;;;3.14;100.00;100968.66;5009136;28;20054;-64
2022/01/27 05:50:06;;;;;;;13.38;8.70;;;;;;;3.17;100.00;100979.84;5006953;28;20145;-60
2022/01/27 05:52:33;;;;;;;15.60;9.75;;;;;;;3.21;100.00;100991.03;5004044;28;20056;-62
2022/01/27 05:55:00;;;;;;;20.48;10.02;;;;;;;3.19;100.00;100985.00;5012425;28;20131;-64
2022/01/27 05:57:27;;;;;;;19.17;10.50;;;;;;;3.23;100.00;100979.69;5010447;28;20157;-64
2022/01/27 05:59:55;;;;;;;17.90;10.93;;;;;;;3.18;100.00;100991.09;5008521;28;20049;-63
2022/01/27 06:02:22;;;;;;;17.92;11.57;;;;;;;3.15;100.00;100980.75;5004664;28;20065;-64
2022/01/27 06:04:50;;;;;;;17.70;11.05;;;;;;;3.13;100.00;100975.59;5005573;28;20057;-64
2022/01/27 06:07:17;;;;;;;20.40;12.63;;;;;;;3.13;100.00;100977.34;5009408;28;20057;-63
2022/01/27 06:09:44;;;;;;;18.48;12.10;;;;;;;3.09;100.00;100955.75;5004430;28;20342;-64
2022/01/27 06:12:11;;;;;;;17.95;12.20;;;;;;;3.08;100.00;100954.03;5005230;28;20131;-64
2022/01/27 06:14:38;;;;;;;20.98;12.15;;;;;;;3.04;100.00;100936.78;5005389;28;20148;-62
2022/01/27 06:17:06;;;;;;;18.25;11.52;;;;;;;2.99;100.00;100942.09;5004249;28;20403;-64
2022/01/27 06:19:33;;;;;;;23.10;12.93;;;;;;;2.91;100.00;100954.41;5007201;28;20053;-63
2022/01/27 06:22:03;;;;;;;18.90;13.52;;;;;;;2.93;100.00;100944.84;5005723;28;20402;-63
2022/01/27 06:24:30;;;;;;;17.83;12.40;;;;;;;2.92;100.00;100953.53;4990874;28;20136;-64
2022/01/27 06:26:57;;;;;;;19.45;14.07;;;;;;;2.93;100.00;100957.84;5008229;28;20529;-64
2022/01/27 06:29:24;;;;;;;22.83;14.73;;;;;;;2.97;100.00;100949.09;5008811;28;20045;-63
2022/01/27 06:31:51;;;;;;;28.98;15.38;;;;;;;2.96;100.00;100939.56;5006233;28;20061;-62
2022/01/27 06:34:18;;;;;;;25.20;14.60;;;;;;;2.96;100.00;100944.75;5005366;28;20050;-62
2022/01/27 06:36:48;;;;;;;28.73;15.68;;;;;;;2.96;100.00;100925.72;5006763;28;20038;-63
2022/01/27 06:39:15;;;;;;;26.40;14.93;;;;;;;2.96;100.00;100929.16;5003318;28;20339;-63
2022/01/27 06:41:43;;;;;;;23.45;14.43;;;;;;;2.96;100.00;100918.75;5010211;28;20066;-62
2022/01/27 06:44:11;;;;;;;22.60;14.15;;;;;;;2.97;100.00;100933.50;5002914;28;20053;-61
2022/01/27 06:46:38;;;;;;;24.20;14.80;;;;;;;2.98;100.00;100927.41;5006015;28;20042;-62
2022/01/27 06:49:06;;;;;;;27.38;16.08;;;;;;;3.01;100.00;100936.84;5002566;28;20433;-62
2022/01/27 06:51:33;;;;;;;23.60;15.65;;;;;;;3.01;100.00;100922.09;5002934;28;20129;-62
2022/01/27 06:54:01;;;;;;;27.38;17.63;;;;;;;3.02;100.00;100930.78;5003440;28;20401;-62
2022/01/27 06:56:28;;;;;;;26.08;15.38;;;;;;;3.02;100.00;100934.25;5003135;28;20152;-62
2022/01/27 06:58:55;;;;;;;26.10;16.75;;;;;;;2.99;100.00;100933.44;5005919;28;20188;-62
2022/01/27 07:01:22;;;;;;;25.58;16.02;;;;;;;3.00;100.00;100955.97;5007898;28;20053;-62
2022/01/27 07:03:50;;;;;;;31.85;18.60;;;;;;;3.00;100.00;100935.16;5003401;28;20057;-62
2022/01/27 07:06:18;;;;;;;26.83;16.45;;;;;;;3.02;100.00;100933.41;5003229;28;20042;-62
2022/01/27 07:08:45;;;;;;;32.58;18.40;;;;;;;2.99;100.00;100939.50;5004986;28;20057;-60
2022/01/27 07:11:12;;;;;;;32.25;20.08;;;;;;;2.98;100.00;100932.59;5004053;28;20046;-63
2022/01/27 07:13:40;;;;;;;31.65;19.42;;;;;;;3.01;100.00;100921.25;5005236;28;20771;-61
2022/01/27 07:16:08;;;;;;;29.25;20.08;;;;;;;2.98;100.00;100921.34;4989014;28;20048;-63
2022/01/27 07:18:36;;;;;;;28.10;18.33;;;;;;;3.03;100.00;100932.50;5000421;28;20369;-63
2022/01/27 07:21:04;;;;;;;32.97;19.92;;;;;;;3.01;100.00;100926.44;5006482;28;20058;-62
2022/01/27 07:23:31;;;;;;;33.58;19.85;;;;;;;3.02;100.00;100920.38;5002245;28;20145;-63
2022/01/27 07:25:58;;;;;;;35.90;23.25;;;;;;;2.99;100.00;100913.50;5004220;28;20096;-62
2022/01/27 07:28:25;;;;;;;38.03;21.77;;;;;;;2.93;100.00;100910.19;5008490;28;20068;-63
2022/01/27 07:30:52;;;;;;;41.38;23.05;;;;;;;2.93;100.00;100907.59;5003142;28;20053;-62
2022/01/27 07:33:20;;;;;;;46.67;23.05;;;;;;;2.90;100.00;100911.09;5008177;28;20049;-63
2022/01/27 07:35:47;;;;;;;47.17;22.98;;;;;;;2.88;100.00;100938.03;5003298;28;20270;-63
2022/01/27 07:38:14;;;;;;;43.50;24.60;;;;;;;2.90;100.00;100908.50;5012271;28;20080;-61
2022/01/27 07:40:41;;;;;;;43.63;25.15;;;;;;;2.91;100.00;100888.56;4999193;28;20159;-61
2022/01/27 07:43:16;;;;;;;46.65;26.35;;;;;;;2.99;100.00;100902.25;5003232;28;20140;-63
2022/01/27 07:45:43;;;;;;;48.45;25.48;;;;;;;2.95;100.00;100898.00;5000445;28;20076;-63
2022/01/27 07:48:11;;;;;;;48.58;27.20;;;;;;;2.97;100.00;100898.81;5002835;28;20158;-63
2022/01/27 07:50:38;;;;;;;45.97;27.65;;;;;;;3.03;100.00;100889.13;5000514;28;20049;-63
2022/01/27 07:53:05;;;;;;;43.72;26.80;;;;;;;3.04;100.00;100893.44;5003024;28;20169;-64
2022/01/27 07:55:32;;;;;;;46.67;27.70;;;;;;;3.06;100.00;100882.97;5006200;28;20058;-64
2022/01/27 07:58:00;;;;;;;47.95;28.50;;;;;;;3.05;100.00;100884.72;5002733;28;20056;-62
2022/01/27 08:00:28;;;;;;;55.00;27.48;;;;;;;3.06;100.00;100882.97;5005901;28;20524;-61
2022/01/27 08:02:55;;;;;;;47.53;27.52;;;;;;;3.03;100.00;100893.47;5004947;28;20129;-62
2022/01/27 08:05:22;;;;;;;50.72;28.17;;;;;;;3.01;100.00;100890.91;5001796;28;20049;-61
2022/01/27 08:07:50;;;;;;;48.15;27.67;;;;;;;2.97;100.00;100881.47;4999360;28;20473;-61
2022/01/27 08:10:17;;;;;;;55.08;27.90;;;;;;;2.99;100.00;100881.44;5002890;28;20213;-62
2022/01/27 08:12:45;;;;;;;46.22;27.75;;;;;;;2.98;100.00;100870.19;5005475;28;20054;-64
2022/01/27 08:15:12;;;;;;;51.08;28.45;;;;;;;3.00;100.00;100872.72;5005739;28;20057;-62
2022/01/27 08:17:40;;;;;;;49.95;26.20;;;;;;;3.08;100.00;100873.41;5002308;28;20639;-63
2022/01/27 08:20:07;;;;;;;54.30;26.85;;;;;;;2.94;100.00;100872.88;5004219;28;20085;-63
2022/01/27 08:22:38;;;;;;;47.58;27.52;;;;;;;3.01;100.00;100862.28;5001424;28;20141;-61
2022/01/27 08:25:06;;;;;;;51.13;26.20;;;;;;;3.00;100.00;100859.72;5004411;28;20100;-63
2022/01/27 08:27:34;;;;;;;46.97;26.13;;;;;;;2.96;100.00;100855.50;5005746;28;20050;-62
2022/01/27 08:30:04;;;;;;;47.33;25.85;;;;;;;2.99;100.00;100843.28;5005387;28;20064;-63
2022/01/27 08:35:17;;;;;;;44.05;25.92;;;;;;;2.95;99.99;100854.63;5002307;28;20522;-61
2022/01/27 08:37:44;;;;;;;48.08;25.95;;;;;;;2.91;100.00;100844.34;5003728;28;20050;-62
2022/01/27 08:40:16;;;;;;;53.67;26.20;;;;;;;2.88;100.00;100844.41;5005430;28;20050;-61
2022/01/27 08:43:03;;;;;;;48.40;26.45;;;;;;;2.90;100.00;100832.25;5001521;28;20650;-61
2022/01/27 08:45:31;;;;;;;43.20;25.23;;;;;;;2.87;100.00;100837.50;5000818;28;20045;-61
2022/01/27 08:47:59;;;;;;;50.15;25.67;;;;;;;2.85;100.00;100826.31;5005476;28;20553;-61
2022/01/27 08:50:27;;;;;;;50.53;26.85;;;;;;;2.85;100.00;100827.16;5000237;28;20536;-61
2022/01/27 08:52:54;;;;;;;46.90;26.58;;;;;;;2.86;100.00;100856.59;5003141;28;20085;-62
2022/01/27 08:55:21;;;;;;;48.28;25.73;;;;;;;2.91;100.00;100823.56;5001530;28;20056;-62
2022/01/27 08:57:49;;;;;;;45.90;25.25;;;;;;;2.93;100.00;100812.22;5000505;28;20077;-63
2022/01/27 09:00:19;;;;;;;45.38;25.13;;;;;;;2.96;100.00;100814.72;4984447;28;20470;-63
2022/01/27 09:02:51;;;;;;;47.83;26.20;;;;;;;3.01;100.00;100823.28;5002798;28;20446;-63
2022/01/27 09:05:18;;;;;;;46.47;24.67;;;;;;;2.98;98.48;100817.31;5000368;28;20053;-62
2022/01/27 09:07:45;;;;;;;45.45;24.90;;;;;;;3.06;98.18;100812.75;5004100;28;20050;-61
2022/01/27 09:10:12;;;;;;;43.65;24.08;;;;;;;3.08;98.40;100811.00;5006440;28;20064;-59
2022/01/27 09:12:42;;;;;;;44.22;24.83;;;;;;;3.07;98.44;100811.03;5008228;28;20064;-62
2022/01/27 09:15:09;;;;;;;41.22;22.90;;;;;;;3.14;97.52;100796.97;5006013;28;20133;-62
2022/01/27 09:17:39;;;;;;;42.65;22.63;;;;;;;3.14;97.62;100804.78;5007089;28;20042;-62
2022/01/27 09:20:11;;;;;;;37.75;21.23;;;;;;;3.17;97.40;100789.09;5010390;28;20057;-62
2022/01/27 09:22:38;;;;;;;45.67;22.50;;;;;;;3.22;96.99;100788.06;5007220;28;20052;-61
2022/01/27 09:25:13;;;;;;;44.72;22.00;;;;;;;3.22;97.74;100789.81;5003993;28;20125;-62
2022/01/27 09:27:42;;;;;;;41.00;21.73;;;;;;;3.18;97.71;100798.59;5008453;28;20046;-61
2022/01/27 09:30:12;;;;;;;35.25;21.63;;;;;;;3.22;98.35;100821.91;5010661;28;20054;-62
2022/01/27 09:32:40;;;;;;;42.33;22.13;;;;;;;3.14;98.35;100828.19;5007365;28;20058;-61
2022/01/27 09:35:28;;;;;;;36.78;19.80;;;;;;;3.16;98.75;100801.25;5000143;28;20046;-62
2022/01/27 09:37:56;;;;;;;42.70;21.25;;;;;;;3.18;98.95;100801.19;5005008;28;20329;-62
2022/01/27 09:40:24;;;;;;;38.10;20.77;;;;;;;3.12;99.15;100797.00;5006404;28;20410;-61
2022/01/27 09:42:53;;;;;;;38.17;21.00;;;;;;;3.20;99.31;100799.44;5004590;28;20050;-62
2022/01/27 09:45:21;;;;;;;39.17;20.83;;;;;;;3.18;99.66;100815.06;5006942;28;20074;-62
2022/01/27 09:47:59;;;;;;;34.78;18.90;;;;;;;3.33;99.76;100799.94;5008047;28;20052;-62
2022/01/27 09:53:03;;;;;;;34.55;19.60;;;;;;;3.25;100.00;100792.34;5007645;28;20058;-62
2022/01/27 09:55:31;;;;;;;34.58;18.55;;;;;;;3.15;100.00;100790.88;5002714;28;20061;-60
2022/01/27 09:58:05;;;;;;;36.55;18.70;;;;;;;3.07;100.00;100798.88;5010750;28;20050;-63
2022/01/27 10:00:34;;;;;;;34.40;18.70;;;;;;;3.06;100.00;100789.34;5002100;28;20060;-61
2022/01/27 10:03:11;;;;;;;41.83;20.73;;;;;;;3.04;100.00;100779.00;5006026;28;20777;-62
2022/01/27 10:05:41;;;;;;;36.58;19.92;;;;;;;2.95;100.00;100781.81;5000986;28;20057;-62
2022/01/27 10:08:18;;;;;;;34.05;19.20;;;;;;;2.96;100.00;100786.13;5011038;28;20052;-62
2022/01/27 10:10:50;;;;;;;36.70;19.05;;;;;;;2.89;100.00;100760.34;4976502;28;20065;-62
2022/01/27 10:13:38;;;;;;;34.65;18.25;;;;;;;2.88;100.00;100771.59;4998375;28;20144;-62
2022/01/27 10:16:07;;;;;;;38.83;19.67;;;;;;;2.83;100.00;100769.13;4991527;28;20049;-62
2022/01/27 10:18:40;;;;;;;40.90;20.20;;;;;;;2.68;100.00;100766.91;5007161;28;20137;-61
2022/01/27 10:21:12;;;;;;;38.15;20.05;;;;;;;2.63;100.00;100773.97;4996000;28;20147;-62
2022/01/27 10:23:40;;;;;;;33.70;18.50;;;;;;;2.65;100.00;100757.44;5000945;28;20064;-61
2022/01/27 10:26:18;;;;;;;38.15;20.15;;;;;;;2.64;100.00;100758.31;4997049;28;21706;-62
2022/01/27 10:28:56;;;;;;;36.15;19.48;;;;;;;2.62;100.00;100752.31;5004031;28;20136;-62
2022/01/27 10:31:25;;;;;;;38.60;22.33;;;;;;;2.58;100.00;100762.84;5006482;28;20633;-63
2022/01/27 10:34:01;;;;;;;40.05;20.73;;;;;;;2.62;100.00;100754.94;5002087;28;20057;-61
2022/01/27 10:36:32;;;;;;;40.50;21.50;;;;;;;2.56;100.00;100775.84;4999686;28;20164;-61
2022/01/27 10:39:00;;;;;;;41.45;21.55;;;;;;;2.62;100.00;100765.31;5008621;28;20058;-61
2022/01/27 10:41:30;;;;;;;41.30;20.75;;;;;;;2.62;100.00;100760.13;5002383;28;20074;-60
2022/01/27 10:44:18;;;;;;;38.05;20.52;;;;;;;2.62;100.00;100752.31;5005931;28;20057;-61
2022/01/27 10:47:12;;;;;;;40.85;21.70;;;;;;;2.69;100.00;100773.81;5006164;28;20081;-61
2022/01/27 10:49:45;;;;;;;40.13;19.85;;;;;;;2.64;100.00;100737.53;5005061;28;20097;-62
2022/01/27 10:52:37;;;;;;;37.70;21.38;;;;;;;2.72;100.00;100758.16;5000488;28;20077;-61
2022/01/27 10:55:08;;;;;;;41.15;21.98;;;;;;;2.68;100.00;100746.13;5008438;28;20061;-62
2022/01/27 10:57:35;;;;;;;48.22;22.60;;;;;;;2.66;100.00;100735.78;5005946;28;20054;-62
2022/01/27 11:00:14;;;;;;;42.45;22.23;;;;;;;2.63;100.00;100738.44;5006249;28;20141;-62
2022/01/27 11:02:56;;;;;;;44.67;21.73;;;;;;;2.56;100.00;100743.81;5002952;28;20140;-62
2022/01/27 11:05:25;;;;;;;43.63;22.63;;;;;;;2.67;100.00;100726.22;5000710;28;20072;-62
2022/01/27 11:07:53;;;;;;;45.05;23.40;;;;;;;2.67;100.00;100719.28;5004543;28;20151;-62
2022/01/27 11:10:26;;;;;;;44.03;22.13;;;;;;;2.74;100.00;100720.81;5003238;28;20145;-60
2022/01/27 11:12:53;;;;;;;42.42;22.52;;;;;;;2.75;100.00;100700.91;5009171;28;20100;-62
2022/01/27 11:15:21;;;;;;;48.70;23.70;;;;;;;2.86;100.00;100688.47;5009719;28;20056;-62
2022/01/27 11:17:49;;;;;;;43.50;22.77;;;;;;;2.83;100.00;100698.94;5004504;28;20048;-62
2022/01/27 11:26:10;;;;;;;43.85;21.42;;;;;;;2.74;100.00;100686.16;5004687;28;20065;-62
2022/01/27 11:28:41;;;;;;;44.53;22.60;;;;;;;2.75;100.00;100686.16;5002546;28;20572;-62
2022/01/27 11:31:17;;;;;;;43.72;22.35;;;;;;;2.84;100.00;100679.84;4996765;28;20510;-62
2022/01/27 11:33:55;;;;;;;44.92;23.48;;;;;;;2.92;100.00;100670.09;4997981;28;20054;-62
2022/01/27 11:36:24;;;;;;;41.28;20.70;;;;;;;2.83;100.00;100672.06;4987383;28;20145;-61
2022/01/27 11:38:51;;;;;;;38.38;20.75;;;;;;;2.87;100.00;100671.09;5007951;28;20132;-61
2022/01/27 11:41:44;;;;;;;38.20;20.38;;;;;;;2.87;100.00;100671.97;5004054;28;20046;-62
2022/01/27 11:44:25;;;;;;;38.28;20.20;;;;;;;2.90;100.00;100664.09;4995775;28;20047;-62
2022/01/27 11:47:08;;;;;;;36.17;19.17;;;;;;;2.93;100.00;100679.63;5007928;28;20461;-62
2022/01/27 11:50:17;;;;;;;33.05;18.42;;;;;;;2.91;100.00;100655.38;5004427;28;20053;-61
2022/01/27 11:52:54;;;;;;;36.47;19.08;;;;;;;3.00;100.00;100656.88;5001518;28;20077;-62
2022/01/27 11:55:24;;;;;;;37.65;20.27;;;;;;;2.90;100.00;100660.63;5000165;28;20408;-61
2022/01/27 11:57:53;;;;;;;36.40;18.45;;;;;;;2.90;100.00;100656.28;5003546;28;20057;-60
2022/01/27 12:00:28;;;;;;;32.72;18.67;;;;;;;2.93;100.00;100650.16;4998815;28;20066;-61
2022/01/27 12:03:01;;;;;;;33.65;18.48;;;;;;;2.98;100.00;100650.88;5001455;28;20042;-61
2022/01/27 12:05:33;;;;;;;34.88;18.10;;;;;;;2.97;100.00;100639.63;5000344;28;20128;-61